createdAt,value
2023-07-07T00:00:58.040Z,415.00
2023-07-07T00:01:57.946Z,415.00
2023-07-07T00:02:57.910Z,416.00
2023-07-07T00:03:57.990Z,416.00
2023-07-07T00:04:57.995Z,416.00
2023-07-07T00:05:58.030Z,414.00
2023-07-07T00:06:58.094Z,414.00
2023-07-07T00:07:58.164Z,415.00
2023-07-07T00:08:58.265Z,415.00
2023-07-07T00:09:58.257Z,416.00
2023-07-07T00:10:58.555Z,418.00
2023-07-07T00:11:58.379Z,420.00
2023-07-07T00:12:58.436Z,421.00
2023-07-07T00:13:58.557Z,420.00
2023-07-07T00:14:58.534Z,419.00
2023-07-07T00:15:58.570Z,418.00
2023-07-07T00:16:58.643Z,416.00
2023-07-07T00:17:58.712Z,417.00
2023-07-07T00:18:58.713Z,418.00
2023-07-07T00:19:58.786Z,419.00
2023-07-07T00:20:59.089Z,420.00
2023-07-07T00:21:58.889Z,420.00
2023-07-07T00:22:59.015Z,419.00
2023-07-07T00:23:59.007Z,420.00
2023-07-07T00:24:59.054Z,422.00
2023-07-07T00:25:59.084Z,421.00
2023-07-07T00:26:59.188Z,420.00
2023-07-07T00:27:59.199Z,421.00
2023-07-07T00:28:59.290Z,422.00
2023-07-07T00:29:59.344Z,423.00
2023-07-07T00:30:59.694Z,422.00
2023-07-07T00:31:59.465Z,420.00
2023-07-07T00:32:59.579Z,419.00
2023-07-07T00:33:59.551Z,421.00
2023-07-07T00:34:59.685Z,422.00
2023-07-07T00:35:59.695Z,421.00
2023-07-07T00:36:59.776Z,423.00
2023-07-07T00:37:59.796Z,422.00
2023-07-07T00:38:59.849Z,422.00
2023-07-07T00:40:00.002Z,423.00
2023-07-07T00:41:00.147Z,424.00
2023-07-07T00:42:00.016Z,422.00
2023-07-07T00:43:00.344Z,420.00
2023-07-07T00:44:00.123Z,417.00
2023-07-07T00:45:00.186Z,418.00
2023-07-07T00:46:00.331Z,418.00
2023-07-07T00:47:00.349Z,417.00
2023-07-07T00:48:00.424Z,418.00
2023-07-07T00:49:00.443Z,418.00
2023-07-07T00:50:00.521Z,416.00
2023-07-07T00:51:00.597Z,416.00
2023-07-07T00:52:00.730Z,413.00
2023-07-07T00:53:00.688Z,412.00
2023-07-07T00:54:00.759Z,413.00
2023-07-07T00:55:00.821Z,413.00
2023-07-07T00:56:00.879Z,415.00
2023-07-07T00:57:00.954Z,412.00
2023-07-07T00:58:00.996Z,412.00
2023-07-07T00:59:01.067Z,415.00
2023-07-07T01:00:01.150Z,417.00
2023-07-07T01:01:01.539Z,419.00
2023-07-07T01:02:01.296Z,420.00
2023-07-07T01:03:01.384Z,417.00
2023-07-07T01:04:01.433Z,416.00
2023-07-07T01:05:01.426Z,414.00
2023-07-07T01:06:01.585Z,414.00
2023-07-07T01:07:01.593Z,414.00
2023-07-07T01:08:01.624Z,412.00
2023-07-07T01:09:01.697Z,413.00
2023-07-07T01:10:01.765Z,413.00
2023-07-07T01:11:01.793Z,410.00
2023-07-07T01:12:01.855Z,407.00
2023-07-07T01:13:01.916Z,407.00
2023-07-07T01:14:02.164Z,406.00
2023-07-07T01:15:02.015Z,407.00
2023-07-07T01:16:02.121Z,407.00
2023-07-07T01:17:02.199Z,407.00
2023-07-07T01:18:02.261Z,408.00
2023-07-07T01:19:02.285Z,408.00
2023-07-07T01:20:02.366Z,410.00
2023-07-07T01:21:02.664Z,411.00
2023-07-07T01:22:02.504Z,412.00
2023-07-07T01:23:02.527Z,412.00
2023-07-07T01:24:02.588Z,410.00
2023-07-07T01:25:02.610Z,410.00
2023-07-07T01:26:02.673Z,411.00
2023-07-07T01:27:02.742Z,411.00
2023-07-07T01:28:02.782Z,410.00
2023-07-07T01:29:02.880Z,408.00
2023-07-07T01:30:02.901Z,404.00
2023-07-07T01:31:02.973Z,404.00
2023-07-07T01:32:03.072Z,404.00
2023-07-07T01:33:03.354Z,405.00
2023-07-07T01:34:03.076Z,407.00
2023-07-07T01:35:03.147Z,409.00
2023-07-07T01:36:03.185Z,411.00
2023-07-07T01:37:03.265Z,412.00
2023-07-07T01:38:03.327Z,409.00
2023-07-07T01:39:03.383Z,409.00
2023-07-07T01:40:03.441Z,410.00
2023-07-07T01:41:03.525Z,409.00
2023-07-07T01:42:03.632Z,409.00
2023-07-07T01:43:03.711Z,408.00
2023-07-07T01:44:03.792Z,412.00
2023-07-07T01:45:03.865Z,414.00
2023-07-07T01:46:03.946Z,415.00
2023-07-07T01:47:03.947Z,415.00
2023-07-07T01:48:04.043Z,414.00
2023-07-07T01:49:04.049Z,413.00
2023-07-07T01:50:04.092Z,415.00
2023-07-07T01:51:04.111Z,416.00
2023-07-07T01:52:04.313Z,419.00
2023-07-07T01:53:04.198Z,421.00
2023-07-07T01:54:04.212Z,421.00
2023-07-07T01:55:04.268Z,420.00
2023-07-07T01:56:04.331Z,420.00
2023-07-07T01:57:04.400Z,419.00
2023-07-07T01:58:04.392Z,418.00
2023-07-07T01:59:04.459Z,416.00
2023-07-07T02:00:04.489Z,419.00
2023-07-07T02:01:04.555Z,422.00
2023-07-07T02:02:04.539Z,423.00
2023-07-07T02:03:04.589Z,421.00
2023-07-07T02:04:04.579Z,419.00
2023-07-07T02:05:04.687Z,421.00
2023-07-07T02:06:05.364Z,419.00
2023-07-07T02:07:04.632Z,418.00
2023-07-07T02:08:04.637Z,418.00
2023-07-07T02:09:04.655Z,417.00
2023-07-07T02:10:04.679Z,418.00
2023-07-07T02:11:04.739Z,420.00
2023-07-07T02:12:04.761Z,419.00
2023-07-07T02:13:04.730Z,419.00
2023-07-07T02:14:04.882Z,417.00
2023-07-07T02:15:04.822Z,418.00
2023-07-07T02:16:04.841Z,419.00
2023-07-07T02:17:04.929Z,420.00
2023-07-07T02:18:04.975Z,419.00
2023-07-07T02:19:04.918Z,416.00
2023-07-07T02:20:04.916Z,417.00
2023-07-07T02:21:04.930Z,418.00
2023-07-07T02:22:04.998Z,419.00
2023-07-07T02:23:04.981Z,418.00
2023-07-07T02:24:05.004Z,417.00
2023-07-07T02:25:05.016Z,415.00
2023-07-07T02:26:04.996Z,416.00
2023-07-07T02:27:05.021Z,414.00
2023-07-07T02:28:05.015Z,415.00
2023-07-07T02:29:05.084Z,417.00
2023-07-07T02:30:05.099Z,417.00
2023-07-07T02:31:05.148Z,418.00
2023-07-07T02:32:05.158Z,418.00
2023-07-07T02:33:05.238Z,416.00
2023-07-07T02:34:05.185Z,415.00
2023-07-07T02:35:05.187Z,415.00
2023-07-07T02:36:05.222Z,416.00
2023-07-07T02:37:05.295Z,417.00
2023-07-07T02:38:05.376Z,415.00
2023-07-07T02:39:05.467Z,416.00
2023-07-07T02:40:05.501Z,416.00
2023-07-07T02:41:05.450Z,417.00
2023-07-07T02:42:05.469Z,417.00
2023-07-07T02:43:05.493Z,419.00
2023-07-07T02:44:05.504Z,418.00
2023-07-07T02:45:06.312Z,419.00
2023-07-07T02:46:05.520Z,422.00
2023-07-07T02:47:05.651Z,421.00
2023-07-07T02:48:05.644Z,421.00
2023-07-07T02:49:05.662Z,420.00
2023-07-07T02:50:05.575Z,419.00
2023-07-07T02:51:05.654Z,418.00
2023-07-07T02:52:05.675Z,414.00
2023-07-07T02:53:05.683Z,412.00
2023-07-07T02:54:05.658Z,412.00
2023-07-07T02:55:05.680Z,413.00
2023-07-07T02:56:05.679Z,414.00
2023-07-07T02:57:05.701Z,415.00
2023-07-07T02:58:05.794Z,418.00
2023-07-07T02:59:05.900Z,418.00
2023-07-07T03:00:05.962Z,418.00
2023-07-07T03:01:06.059Z,419.00
2023-07-07T03:02:06.154Z,421.00
2023-07-07T03:03:06.337Z,422.00
2023-07-07T03:04:06.329Z,423.00
2023-07-07T03:05:06.314Z,423.00
2023-07-07T03:06:06.294Z,422.00
2023-07-07T03:07:06.309Z,420.00
2023-07-07T03:08:06.308Z,421.00
2023-07-07T03:09:06.298Z,419.00
2023-07-07T03:10:06.351Z,420.00
2023-07-07T03:11:06.451Z,418.00
2023-07-07T03:12:06.541Z,420.00
2023-07-07T03:13:06.615Z,420.00
2023-07-07T03:14:06.820Z,420.00
2023-07-07T03:15:06.800Z,419.00
2023-07-07T03:16:06.902Z,418.00
2023-07-07T03:17:07.109Z,418.00
2023-07-07T03:18:06.939Z,419.00
2023-07-07T03:19:06.926Z,419.00
2023-07-07T03:20:06.996Z,418.00
2023-07-07T03:21:07.024Z,418.00
2023-07-07T03:22:07.039Z,419.00
2023-07-07T03:23:07.016Z,419.00
2023-07-07T03:24:07.029Z,417.00
2023-07-07T03:25:07.016Z,416.00
2023-07-07T03:26:07.043Z,415.00
2023-07-07T03:27:07.136Z,413.00
2023-07-07T03:28:07.253Z,413.00
2023-07-07T03:29:07.634Z,415.00
2023-07-07T03:30:07.254Z,414.00
2023-07-07T03:31:07.356Z,414.00
2023-07-07T03:32:07.307Z,416.00
2023-07-07T03:33:07.319Z,418.00
2023-07-07T03:34:07.269Z,419.00
2023-07-07T03:35:07.295Z,420.00
2023-07-07T03:36:07.361Z,421.00
2023-07-07T03:37:07.374Z,419.00
2023-07-07T03:38:07.383Z,421.00
2023-07-07T03:39:07.411Z,422.00
2023-07-07T03:40:07.553Z,421.00
2023-07-07T03:41:07.393Z,421.00
2023-07-07T03:42:07.412Z,420.00
2023-07-07T03:43:07.484Z,416.00
2023-07-07T03:44:07.501Z,415.00
2023-07-07T03:45:07.529Z,414.00
2023-07-07T03:46:07.576Z,413.00
2023-07-07T03:47:07.566Z,416.00
2023-07-07T03:48:07.587Z,418.00
2023-07-07T03:49:07.557Z,417.00
2023-07-07T03:50:07.610Z,418.00
2023-07-07T03:51:07.692Z,415.00
2023-07-07T03:52:07.717Z,415.00
2023-07-07T03:53:07.723Z,415.00
2023-07-07T03:54:07.717Z,413.00
2023-07-07T03:55:07.720Z,411.00
2023-07-07T03:56:07.736Z,413.00
2023-07-07T03:57:07.740Z,413.00
2023-07-07T03:58:07.833Z,412.00
2023-07-07T03:59:07.866Z,413.00
2023-07-07T04:00:07.852Z,415.00
2023-07-07T04:01:07.903Z,418.00
2023-07-07T04:02:07.901Z,419.00
2023-07-07T04:03:07.967Z,417.00
2023-07-07T04:04:08.199Z,417.00
2023-07-07T04:05:08.143Z,414.00
2023-07-07T04:06:07.977Z,416.00
2023-07-07T04:07:08.006Z,416.00
2023-07-07T04:08:08.010Z,416.00
2023-07-07T04:09:08.041Z,416.00
2023-07-07T04:10:08.107Z,416.00
2023-07-07T04:11:08.186Z,420.00
2023-07-07T04:12:08.186Z,422.00
2023-07-07T04:13:08.155Z,423.00
2023-07-07T04:14:08.354Z,424.00
2023-07-07T04:15:08.288Z,427.00
2023-07-07T04:16:08.421Z,428.00
2023-07-07T04:17:08.486Z,426.00
2023-07-07T04:18:08.587Z,427.00
2023-07-07T04:19:08.639Z,426.00
2023-07-07T04:20:08.633Z,426.00
2023-07-07T04:21:08.672Z,425.00
2023-07-07T04:22:08.731Z,424.00
2023-07-07T04:23:08.796Z,424.00
2023-07-07T04:24:08.822Z,424.00
2023-07-07T04:25:08.840Z,423.00
2023-07-07T04:26:08.906Z,423.00
2023-07-07T04:27:08.924Z,425.00
2023-07-07T04:28:08.990Z,425.00
2023-07-07T04:29:09.036Z,423.00
2023-07-07T04:30:09.087Z,422.00
2023-07-07T04:31:09.291Z,422.00
2023-07-07T04:32:09.225Z,425.00
2023-07-07T04:33:09.294Z,428.00
2023-07-07T04:34:09.341Z,428.00
2023-07-07T04:35:09.403Z,428.00
2023-07-07T04:36:09.480Z,430.00
2023-07-07T04:37:09.560Z,430.00
2023-07-07T04:38:09.611Z,427.00
2023-07-07T04:39:09.649Z,426.00
2023-07-07T04:40:09.726Z,428.00
2023-07-07T04:41:09.797Z,428.00
2023-07-07T04:42:09.835Z,429.00
2023-07-07T04:43:09.888Z,428.00
2023-07-07T04:44:09.951Z,430.00
2023-07-07T04:45:10.095Z,429.00
2023-07-07T04:46:10.218Z,430.00
2023-07-07T04:47:10.138Z,430.00
2023-07-07T04:48:10.211Z,429.00
2023-07-07T04:49:10.299Z,431.00
2023-07-07T04:50:10.327Z,431.00
2023-07-07T04:51:10.390Z,430.00
2023-07-07T04:52:10.419Z,430.00
2023-07-07T04:53:10.855Z,430.00
2023-07-07T04:54:10.466Z,431.00
2023-07-07T04:55:10.489Z,430.00
2023-07-07T04:56:10.542Z,430.00
2023-07-07T04:57:10.578Z,429.00
2023-07-07T04:58:10.623Z,428.00
2023-07-07T04:59:10.717Z,425.00
2023-07-07T05:00:10.651Z,425.00
2023-07-07T05:01:10.752Z,428.00
2023-07-07T05:02:10.789Z,430.00
2023-07-07T05:03:10.772Z,433.00
2023-07-07T05:04:10.890Z,435.00
2023-07-07T05:05:10.857Z,433.00
2023-07-07T05:06:10.888Z,431.00
2023-07-07T05:07:10.917Z,433.00
2023-07-07T05:08:10.935Z,435.00
2023-07-07T05:09:10.956Z,437.00
2023-07-07T05:10:10.911Z,437.00
2023-07-07T05:11:10.986Z,437.00
2023-07-07T05:12:11.122Z,437.00
2023-07-07T05:13:11.187Z,435.00
2023-07-07T05:14:11.369Z,434.00
2023-07-07T05:15:11.228Z,435.00
2023-07-07T05:16:11.319Z,437.00
2023-07-07T05:17:11.280Z,435.00
2023-07-07T05:18:11.328Z,437.00
2023-07-07T05:19:11.358Z,438.00
2023-07-07T05:20:11.347Z,439.00
2023-07-07T05:21:11.370Z,440.00
2023-07-07T05:22:11.401Z,440.00
2023-07-07T05:23:12.339Z,439.00
2023-07-07T05:24:11.445Z,441.00
2023-07-07T05:25:11.504Z,443.00
2023-07-07T05:26:11.549Z,442.00
2023-07-07T05:27:11.595Z,441.00
2023-07-07T05:28:11.657Z,439.00
2023-07-07T05:29:11.667Z,438.00
2023-07-07T05:30:11.821Z,437.00
2023-07-07T05:31:11.750Z,439.00
2023-07-07T05:32:11.790Z,442.00
2023-07-07T05:33:11.808Z,445.00
2023-07-07T05:34:11.734Z,448.00
2023-07-07T05:35:11.850Z,448.00
2023-07-07T05:36:11.903Z,450.00
2023-07-07T05:37:11.825Z,451.00
2023-07-07T05:38:11.894Z,449.00
2023-07-07T05:39:11.997Z,451.00
2023-07-07T05:40:14.962Z,451.00
2023-07-07T05:41:11.989Z,448.00
2023-07-07T05:42:12.071Z,445.00
2023-07-07T05:43:12.416Z,447.00
2023-07-07T05:44:11.972Z,447.00
2023-07-07T05:45:11.976Z,447.00
2023-07-07T05:46:12.032Z,450.00
2023-07-07T05:47:11.958Z,453.00
2023-07-07T05:48:11.947Z,454.00
2023-07-07T05:49:12.009Z,456.00
2023-07-07T05:50:12.028Z,455.00
2023-07-07T05:51:11.955Z,457.00
2023-07-07T05:52:11.938Z,458.00
2023-07-07T05:53:11.932Z,463.00
2023-07-07T05:54:11.942Z,466.00
2023-07-07T05:55:11.889Z,462.00
2023-07-07T05:56:11.925Z,462.00
2023-07-07T05:57:12.008Z,462.00
2023-07-07T05:58:11.914Z,462.00
2023-07-07T05:59:11.898Z,460.00
2023-07-07T06:00:11.903Z,459.00
2023-07-07T06:01:11.881Z,462.00
2023-07-07T06:02:11.877Z,461.00
2023-07-07T06:03:11.850Z,459.00
2023-07-07T06:04:11.917Z,460.00
2023-07-07T06:05:11.860Z,459.00
2023-07-07T06:06:11.877Z,461.00
2023-07-07T06:07:11.849Z,462.00
2023-07-07T06:08:11.840Z,463.00
2023-07-07T06:09:11.884Z,460.00
2023-07-07T06:10:11.837Z,461.00
2023-07-07T06:11:11.835Z,462.00
2023-07-07T06:12:11.814Z,462.00
2023-07-07T06:13:11.821Z,459.00
2023-07-07T06:14:11.837Z,456.00
2023-07-07T06:15:11.791Z,458.00
2023-07-07T06:17:11.788Z,452.00
2023-07-07T06:18:11.913Z,450.00
2023-07-07T06:19:12.344Z,450.00
2023-07-07T06:20:11.794Z,451.00
2023-07-07T06:21:11.737Z,451.00
2023-07-07T06:22:11.742Z,451.00
2023-07-07T06:23:11.712Z,450.00
2023-07-07T06:24:11.719Z,447.00
2023-07-07T06:25:11.776Z,447.00
2023-07-07T06:26:11.713Z,447.00
2023-07-07T06:27:11.686Z,447.00
2023-07-07T06:28:11.707Z,443.00
2023-07-07T06:29:11.710Z,441.00
2023-07-07T06:30:11.710Z,440.00
2023-07-07T06:31:11.677Z,441.00
2023-07-07T06:32:11.656Z,439.00
2023-07-07T06:33:11.705Z,438.00
2023-07-07T06:34:11.689Z,438.00
2023-07-07T06:35:11.622Z,436.00
2023-07-07T06:36:11.636Z,435.00
2023-07-07T06:37:11.644Z,435.00
2023-07-07T06:38:11.627Z,434.00
2023-07-07T06:39:11.688Z,435.00
2023-07-07T06:40:11.624Z,435.00
2023-07-07T06:41:11.620Z,435.00
2023-07-07T06:42:11.654Z,437.00
2023-07-07T06:43:11.714Z,436.00
2023-07-07T06:44:11.804Z,438.00
2023-07-07T06:45:11.818Z,439.00
2023-07-07T06:46:11.892Z,438.00
2023-07-07T06:47:12.031Z,436.00
2023-07-07T06:48:12.105Z,442.00
2023-07-07T06:49:12.008Z,456.00
2023-07-07T06:50:12.072Z,486.00
2023-07-07T06:51:12.032Z,567.00
2023-07-07T06:52:12.089Z,569.00
2023-07-07T06:53:12.375Z,572.00
2023-07-07T06:54:12.074Z,591.00
2023-07-07T06:55:12.120Z,600.00
2023-07-07T06:56:12.081Z,603.00
2023-07-07T06:57:12.101Z,607.00
2023-07-07T06:58:12.467Z,610.00
2023-07-07T06:59:12.131Z,622.00
2023-07-07T07:00:12.244Z,637.00
2023-07-07T07:01:14.024Z,642.00
2023-07-07T07:02:12.296Z,670.00
2023-07-07T07:03:12.523Z,719.00
2023-07-07T07:04:12.338Z,687.00
2023-07-07T07:05:12.449Z,701.00
2023-07-07T07:06:12.525Z,711.00
2023-07-07T07:07:12.626Z,704.00
2023-07-07T07:08:12.917Z,702.00
2023-07-07T07:09:12.667Z,778.00
2023-07-07T07:10:12.685Z,754.00
2023-07-07T07:11:12.784Z,745.00
2023-07-07T07:12:13.253Z,738.00
2023-07-07T07:13:12.809Z,738.00
2023-07-07T07:14:12.827Z,732.00
2023-07-07T07:15:13.206Z,721.00
2023-07-07T07:16:12.929Z,744.00
2023-07-07T07:17:13.295Z,782.00
2023-07-07T07:18:13.137Z,785.00
2023-07-07T07:19:13.195Z,809.00
2023-07-07T07:20:13.232Z,820.00
2023-07-07T07:21:14.129Z,806.00
2023-07-07T07:22:13.317Z,741.00
2023-07-07T07:23:13.383Z,883.00
2023-07-07T07:24:13.410Z,837.00
2023-07-07T07:25:13.690Z,868.00
2023-07-07T07:26:13.498Z,835.00
2023-07-07T07:27:13.483Z,804.00
2023-07-07T07:28:14.083Z,717.00
2023-07-07T07:29:13.642Z,611.00
2023-07-07T07:30:13.827Z,545.00
2023-07-07T07:31:14.444Z,547.00
2023-07-07T07:32:13.678Z,538.00
2023-07-07T07:33:13.994Z,524.00
2023-07-07T07:34:13.758Z,510.00
2023-07-07T07:35:13.884Z,501.00
2023-07-07T07:36:14.658Z,478.00
2023-07-07T07:37:15.139Z,470.00
2023-07-07T07:38:14.439Z,462.00
2023-07-07T07:39:14.179Z,458.00
2023-07-07T07:40:14.910Z,451.00
2023-07-07T07:41:14.353Z,444.00
2023-07-07T07:42:14.133Z,438.00
2023-07-07T07:43:14.971Z,436.00
2023-07-07T07:44:14.670Z,436.00
2023-07-07T07:45:14.375Z,434.00
2023-07-07T07:46:14.361Z,431.00
2023-07-07T07:47:15.461Z,429.00
2023-07-07T07:48:14.598Z,426.00
2023-07-07T07:49:14.561Z,423.00
2023-07-07T07:50:14.504Z,423.00
2023-07-07T07:51:34.990Z,420.00
2023-07-07T07:52:15.544Z,420.00
2023-07-07T07:53:14.842Z,420.00
2023-07-07T07:54:14.757Z,419.00
2023-07-07T07:55:14.527Z,422.00
2023-07-07T07:56:14.530Z,421.00
2023-07-07T07:57:14.502Z,420.00
2023-07-07T07:58:14.579Z,423.00
2023-07-07T07:59:14.577Z,424.00
2023-07-07T08:00:14.565Z,424.00
2023-07-07T08:01:14.589Z,424.00
2023-07-07T08:02:14.521Z,424.00
2023-07-07T08:03:14.598Z,423.00
2023-07-07T08:04:14.681Z,420.00
2023-07-07T08:05:14.525Z,421.00
2023-07-07T08:06:14.472Z,417.00
2023-07-07T08:07:14.553Z,416.00
2023-07-07T08:08:16.699Z,417.00
2023-07-07T08:09:14.546Z,419.00
2023-07-07T08:10:14.560Z,416.00
2023-07-07T08:11:14.791Z,418.00
2023-07-07T08:12:14.596Z,419.00
2023-07-07T08:13:16.724Z,421.00
2023-07-07T08:14:15.656Z,421.00
2023-07-07T08:15:14.476Z,423.00
2023-07-07T08:16:14.538Z,424.00
2023-07-07T08:17:14.620Z,425.00
2023-07-07T08:18:14.978Z,427.00
2023-07-07T08:19:17.993Z,424.00
2023-07-07T08:20:15.492Z,424.00
2023-07-07T08:21:14.510Z,425.00
2023-07-07T08:22:14.515Z,427.00
2023-07-07T08:23:14.459Z,429.00
2023-07-07T08:24:14.504Z,430.00
2023-07-07T08:25:14.407Z,431.00
2023-07-07T08:28:14.430Z,438.00
2023-07-07T08:30:14.415Z,439.00
2023-07-07T08:31:14.404Z,437.00
2023-07-07T08:32:14.394Z,436.00
2023-07-07T08:33:14.361Z,434.00
2023-07-07T08:34:14.363Z,433.00
2023-07-07T08:35:14.338Z,431.00
2023-07-07T08:36:14.318Z,429.00
2023-07-07T08:37:14.343Z,431.00
2023-07-07T08:38:14.375Z,429.00
2023-07-07T08:39:14.310Z,428.00
2023-07-07T08:40:14.293Z,425.00
2023-07-07T08:41:14.299Z,425.00
2023-07-07T08:42:14.299Z,427.00
2023-07-07T08:43:14.276Z,428.00
2023-07-07T08:44:14.427Z,426.00
2023-07-07T08:45:14.276Z,427.00
2023-07-07T08:46:14.294Z,426.00
2023-07-07T08:47:14.227Z,425.00
2023-07-07T08:48:14.315Z,427.00
2023-07-07T08:49:14.251Z,425.00
2023-07-07T08:50:28.179Z,426.00
2023-07-07T08:51:15.240Z,426.00
2023-07-07T08:52:14.257Z,426.00
2023-07-07T08:53:14.248Z,421.00
2023-07-07T08:54:14.483Z,421.00
2023-07-07T08:55:14.237Z,420.00
2023-07-07T08:56:14.210Z,423.00
2023-07-07T08:57:14.230Z,426.00
2023-07-07T08:58:28.484Z,424.00
2023-07-07T08:59:14.975Z,426.00
2023-07-07T09:00:14.179Z,426.00
2023-07-07T09:01:14.220Z,423.00
2023-07-07T09:02:14.235Z,420.00
2023-07-07T09:03:14.421Z,420.00
2023-07-07T09:04:14.218Z,420.00
2023-07-07T09:05:14.219Z,421.00
2023-07-07T09:06:14.219Z,420.00
2023-07-07T09:07:14.963Z,419.00
2023-07-07T09:08:14.395Z,419.00
2023-07-07T09:09:14.295Z,418.00
2023-07-07T09:10:14.462Z,416.00
2023-07-07T09:11:14.411Z,415.00
2023-07-07T09:12:14.560Z,415.00
2023-07-07T09:13:14.468Z,416.00
2023-07-07T09:14:14.597Z,415.00
2023-07-07T09:15:14.570Z,415.00
2023-07-07T09:16:14.642Z,414.00
2023-07-07T09:17:14.708Z,413.00
2023-07-07T09:18:14.718Z,411.00
2023-07-07T09:19:14.816Z,409.00
2023-07-07T09:20:14.818Z,407.00
2023-07-07T09:21:14.881Z,409.00
2023-07-07T09:22:14.934Z,412.00
2023-07-07T09:23:15.003Z,413.00
2023-07-07T09:24:15.028Z,413.00
2023-07-07T09:25:15.096Z,413.00
2023-07-07T09:26:15.175Z,414.00
2023-07-07T09:27:15.238Z,414.00
2023-07-07T09:28:15.316Z,414.00
2023-07-07T09:29:15.336Z,414.00
2023-07-07T09:30:15.399Z,414.00
2023-07-07T09:31:15.476Z,413.00
2023-07-07T09:32:15.494Z,415.00
2023-07-07T09:33:15.923Z,415.00
2023-07-07T09:34:15.592Z,416.00
2023-07-07T09:35:15.677Z,418.00
2023-07-07T09:36:15.722Z,418.00
2023-07-07T09:37:15.766Z,416.00
2023-07-07T09:38:15.859Z,417.00
2023-07-07T09:39:15.894Z,419.00
2023-07-07T09:40:15.899Z,417.00
2023-07-07T09:41:16.014Z,414.00
2023-07-07T09:42:16.079Z,412.00
2023-07-07T09:43:16.161Z,413.00
2023-07-07T09:44:16.139Z,415.00
2023-07-07T09:45:16.255Z,414.00
2023-07-07T09:46:16.281Z,414.00
2023-07-07T09:47:16.372Z,413.00
2023-07-07T09:48:16.483Z,412.00
2023-07-07T09:49:16.443Z,410.00
2023-07-07T09:50:16.500Z,408.00
2023-07-07T09:51:16.585Z,407.00
2023-07-07T09:52:16.757Z,407.00
2023-07-07T09:53:23.500Z,407.00
2023-07-07T09:54:16.668Z,408.00
2023-07-07T09:55:16.677Z,406.00
2023-07-07T09:56:16.657Z,406.00
2023-07-07T09:57:16.656Z,405.00
2023-07-07T09:58:16.654Z,404.00
2023-07-07T09:59:16.623Z,403.00
2023-07-07T10:00:16.645Z,402.00
2023-07-07T10:01:16.687Z,401.00
2023-07-07T10:02:16.654Z,400.00
2023-07-07T10:03:16.623Z,399.00
2023-07-07T10:04:16.764Z,398.00
2023-07-07T10:05:16.641Z,398.00
2023-07-07T10:06:16.594Z,397.00
2023-07-07T10:07:16.616Z,399.00
2023-07-07T10:08:16.646Z,398.00
2023-07-07T10:09:16.618Z,398.00
2023-07-07T10:10:16.647Z,398.00
2023-07-07T10:11:50.633Z,397.00
2023-07-07T10:12:23.344Z,398.00
2023-07-07T10:13:17.703Z,397.00
2023-07-07T10:14:16.655Z,398.00
2023-07-07T10:15:16.618Z,398.00
2023-07-07T10:16:16.711Z,397.00
2023-07-07T10:17:16.621Z,396.00
2023-07-07T10:18:16.963Z,395.00
2023-07-07T10:19:16.638Z,397.00
2023-07-07T10:20:16.647Z,398.00
2023-07-07T10:21:16.579Z,398.00
2023-07-07T10:22:16.601Z,396.00
2023-07-07T10:23:16.601Z,396.00
2023-07-07T10:24:16.584Z,399.00
2023-07-07T10:25:16.598Z,400.00
2023-07-07T10:26:16.598Z,400.00
2023-07-07T10:27:16.587Z,396.00
2023-07-07T10:28:16.596Z,394.00
2023-07-07T10:29:16.574Z,392.00
2023-07-07T10:30:17.411Z,389.00
2023-07-07T10:31:16.539Z,389.00
2023-07-07T10:32:16.537Z,391.00
2023-07-07T10:33:16.519Z,391.00
2023-07-07T10:34:16.542Z,392.00
2023-07-07T10:35:16.515Z,391.00
2023-07-07T10:36:16.534Z,391.00
2023-07-07T10:37:16.489Z,393.00
2023-07-07T10:38:16.578Z,393.00
2023-07-07T10:39:16.449Z,394.00
2023-07-07T10:40:16.523Z,394.00
2023-07-07T10:41:16.472Z,396.00
2023-07-07T10:42:16.445Z,395.00
2023-07-07T10:43:16.436Z,396.00
2023-07-07T10:44:16.418Z,398.00
2023-07-07T10:45:16.389Z,398.00
2023-07-07T10:46:16.439Z,399.00
2023-07-07T10:47:23.152Z,400.00
2023-07-07T10:48:17.435Z,399.00
2023-07-07T10:49:16.398Z,400.00
2023-07-07T10:50:16.448Z,399.00
2023-07-07T10:51:16.394Z,397.00
2023-07-07T10:52:16.525Z,397.00
2023-07-07T10:54:17.344Z,395.00
2023-07-07T10:55:16.351Z,398.00
2023-07-07T10:56:16.354Z,398.00
2023-07-07T10:57:17.887Z,398.00
2023-07-07T10:58:16.378Z,398.00
2023-07-07T10:59:16.322Z,396.00
2023-07-07T11:00:27.737Z,394.00
2023-07-07T11:01:17.327Z,395.00
2023-07-07T11:02:16.390Z,394.00
2023-07-07T11:04:16.408Z,391.00
2023-07-07T11:06:16.290Z,390.00
2023-07-07T11:07:16.270Z,390.00
2023-07-07T11:08:16.239Z,390.00
2023-07-07T11:09:16.297Z,389.00
2023-07-07T11:10:16.318Z,390.00
2023-07-07T11:11:16.308Z,393.00
2023-07-07T11:12:16.238Z,393.00
2023-07-07T11:13:16.302Z,393.00
2023-07-07T11:14:16.246Z,392.00
2023-07-07T11:15:16.273Z,393.00
2023-07-07T11:16:16.261Z,395.00
2023-07-07T11:17:16.253Z,396.00
2023-07-07T11:18:16.205Z,395.00
2023-07-07T11:19:16.220Z,395.00
2023-07-07T11:20:16.249Z,395.00
2023-07-07T11:21:16.165Z,395.00
2023-07-07T11:22:16.136Z,394.00
2023-07-07T11:23:16.965Z,395.00
2023-07-07T11:25:16.342Z,396.00
2023-07-07T11:26:16.129Z,395.00
2023-07-07T11:27:16.162Z,396.00
2023-07-07T11:28:16.262Z,396.00
2023-07-07T11:29:16.181Z,396.00
2023-07-07T11:30:16.150Z,393.00
2023-07-07T11:31:16.173Z,394.00
2023-07-07T11:32:16.135Z,392.00
2023-07-07T11:33:16.153Z,390.00
2023-07-07T11:34:16.100Z,390.00
2023-07-07T11:35:16.124Z,389.00
2023-07-07T11:36:16.108Z,387.00
2023-07-07T11:37:16.156Z,390.00
2023-07-07T11:38:16.111Z,392.00
2023-07-07T11:39:16.084Z,392.00
2023-07-07T11:40:16.134Z,392.00
2023-07-07T11:41:16.100Z,394.00
2023-07-07T11:42:16.089Z,394.00
2023-07-07T11:43:17.057Z,394.00
2023-07-07T11:44:16.118Z,393.00
2023-07-07T11:45:16.154Z,393.00
2023-07-07T11:46:16.133Z,392.00
2023-07-07T11:47:16.190Z,392.00
2023-07-07T11:48:16.267Z,392.00
2023-07-07T11:49:16.163Z,393.00
2023-07-07T11:50:16.148Z,392.00
2023-07-07T11:51:16.159Z,391.00
2023-07-07T11:52:16.121Z,391.00
2023-07-07T11:53:16.145Z,391.00
2023-07-07T11:54:16.140Z,391.00
2023-07-07T11:55:16.181Z,393.00
2023-07-07T11:56:16.112Z,390.00
2023-07-07T11:57:16.227Z,387.00
2023-07-07T11:58:17.140Z,386.00
2023-07-07T11:59:16.117Z,386.00
2023-07-07T12:00:16.123Z,385.00
2023-07-07T12:01:16.146Z,387.00
2023-07-07T12:02:16.164Z,387.00
2023-07-07T12:03:16.186Z,386.00
2023-07-07T12:04:16.245Z,389.00
2023-07-07T12:05:16.536Z,387.00
2023-07-07T12:06:16.151Z,387.00
2023-07-07T12:07:16.138Z,388.00
2023-07-07T12:08:16.103Z,387.00
2023-07-07T12:09:16.143Z,388.00
2023-07-07T12:10:16.112Z,389.00
2023-07-07T12:11:16.202Z,389.00
2023-07-07T12:12:16.181Z,389.00
2023-07-07T12:13:16.193Z,388.00
2023-07-07T12:14:16.147Z,388.00
2023-07-07T12:15:16.133Z,391.00
2023-07-07T12:16:16.156Z,394.00
2023-07-07T12:17:16.098Z,392.00
2023-07-07T12:18:16.104Z,392.00
2023-07-07T12:19:16.102Z,392.00
2023-07-07T12:20:16.151Z,391.00
2023-07-07T12:21:16.959Z,389.00
2023-07-07T12:22:16.099Z,390.00
2023-07-07T12:23:16.068Z,391.00
2023-07-07T12:24:16.128Z,394.00
2023-07-07T12:25:16.107Z,395.00
2023-07-07T12:26:16.168Z,397.00
2023-07-07T12:27:16.142Z,396.00
2023-07-07T12:28:16.130Z,397.00
2023-07-07T12:29:16.087Z,396.00
2023-07-07T12:30:16.124Z,397.00
2023-07-07T12:31:16.187Z,395.00
2023-07-07T12:32:16.098Z,395.00
2023-07-07T12:33:16.164Z,395.00
2023-07-07T12:34:16.139Z,394.00
2023-07-07T12:35:16.114Z,393.00
2023-07-07T12:36:16.144Z,394.00
2023-07-07T12:37:16.075Z,394.00